sensor_id;sensor_type;location;lat;lon;timestamp;temperature;humidity
25933;DHT22;13731;51.166;4.474;2023-04-15T00:00:12;10.30;1.00
25933;DHT22;13731;51.166;4.474;2023-04-15T00:02:44;10.40;99.90
25933;DHT22;13731;51.166;4.474;2023-04-15T00:05:10;10.40;99.90
25933;DHT22;13731;51.166;4.474;2023-04-15T00:07:36;10.40;99.90
25933;DHT22;13731;51.166;4.474;2023-04-15T00:10:02;10.40;1.00
25933;DHT22;13731;51.166;4.474;2023-04-15T00:12:28;10.40;99.90
25933;DHT22;13731;51.166;4.474;2023-04-15T00:14:55;10.40;1.00
25933;DHT22;13731;51.166;4.474;2023-04-15T00:17:21;10.40;1.00
25933;DHT22;13731;51.166;4.474;2023-04-15T00:19:47;10.50;1.00
25933;DHT22;13731;51.166;4.474;2023-04-15T00:22:13;10.60;1.00
25933;DHT22;13731;51.166;4.474;2023-04-15T00:24:39;10.50;1.00
25933;DHT22;13731;51.166;4.474;2023-04-15T00:27:05;10.60;1.00
25933;DHT22;13731;51.166;4.474;2023-04-15T00:29:32;10.60;1.00
25933;DHT22;13731;51.166;4.474;2023-04-15T00:31:58;10.60;1.00
25933;DHT22;13731;51.166;4.474;2023-04-15T00:34:25;10.70;1.00
25933;DHT22;13731;51.166;4.474;2023-04-15T00:36:52;10.70;1.00
25933;DHT22;13731;51.166;4.474;2023-04-15T00:39:19;10.80;99.90
25933;DHT22;13731;51.166;4.474;2023-04-15T00:41:46;10.70;99.90
25933;DHT22;13731;51.166;4.474;2023-04-15T00:44:12;10.80;99.90
25933;DHT22;13731;51.166;4.474;2023-04-15T00:46:39;10.80;99.90
25933;DHT22;13731;51.166;4.474;2023-04-15T00:49:06;10.60;1.00
25933;DHT22;13731;51.166;4.474;2023-04-15T00:51:36;10.50;99.90
25933;DHT22;13731;51.166;4.474;2023-04-15T00:54:03;10.50;99.90
25933;DHT22;13731;51.166;4.474;2023-04-15T00:56:38;10.50;99.90
25933;DHT22;13731;51.166;4.474;2023-04-15T00:59:05;10.40;99.90
25933;DHT22;13731;51.166;4.474;2023-04-15T01:01:36;10.60;99.90
25933;DHT22;13731;51.166;4.474;2023-04-15T01:04:03;10.80;45.20
25933;DHT22;13731;51.166;4.474;2023-04-15T01:06:30;10.60;1.00
25933;DHT22;13731;51.166;4.474;2023-04-15T01:08:57;10.40;1.00
25933;DHT22;13731;51.166;4.474;2023-04-15T01:11:24;10.50;99.90
25933;DHT22;13731;51.166;4.474;2023-04-15T01:13:51;10.60;99.90
25933;DHT22;13731;51.166;4.474;2023-04-15T01:16:20;10.50;99.90
25933;DHT22;13731;51.166;4.474;2023-04-15T01:18:46;10.50;1.00
25933;DHT22;13731;51.166;4.474;2023-04-15T01:21:13;10.40;55.10
25933;DHT22;13731;51.166;4.474;2023-04-15T01:23:39;10.30;99.90
25933;DHT22;13731;51.166;4.474;2023-04-15T01:26:07;10.20;1.00
25933;DHT22;13731;51.166;4.474;2023-04-15T01:28:36;10.20;99.90
25933;DHT22;13731;51.166;4.474;2023-04-15T01:31:12;10.20;99.90
25933;DHT22;13731;51.166;4.474;2023-04-15T01:33:39;10.30;99.90
25933;DHT22;13731;51.166;4.474;2023-04-15T01:36:08;10.30;89.60
25933;DHT22;13731;51.166;4.474;2023-04-15T01:38:35;10.30;2.20
25933;DHT22;13731;51.166;4.474;2023-04-15T01:41:02;10.30;1.00
25933;DHT22;13731;51.166;4.474;2023-04-15T01:43:29;10.40;1.00
25933;DHT22;13731;51.166;4.474;2023-04-15T01:45:55;10.50;1.00
25933;DHT22;13731;51.166;4.474;2023-04-15T01:48:22;10.40;1.00
25933;DHT22;13731;51.166;4.474;2023-04-15T01:50:48;10.30;1.00
25933;DHT22;13731;51.166;4.474;2023-04-15T01:53:14;10.30;1.00
25933;DHT22;13731;51.166;4.474;2023-04-15T01:55:40;10.20;1.00
25933;DHT22;13731;51.166;4.474;2023-04-15T01:58:08;10.20;72.20
25933;DHT22;13731;51.166;4.474;2023-04-15T02:00:34;10.10;99.90
25933;DHT22;13731;51.166;4.474;2023-04-15T02:03:00;10.10;1.00
25933;DHT22;13731;51.166;4.474;2023-04-15T02:05:26;10.10;99.90
25933;DHT22;13731;51.166;4.474;2023-04-15T02:07:52;10.20;56.80
25933;DHT22;13731;51.166;4.474;2023-04-15T02:10:19;10.40;99.90
25933;DHT22;13731;51.166;4.474;2023-04-15T02:12:44;10.60;1.00
25933;DHT22;13731;51.166;4.474;2023-04-15T02:15:11;10.50;1.00
25933;DHT22;13731;51.166;4.474;2023-04-15T02:17:37;10.40;11.20
25933;DHT22;13731;51.166;4.474;2023-04-15T02:20:03;10.30;75.20
25933;DHT22;13731;51.166;4.474;2023-04-15T02:22:33;10.20;99.90
25933;DHT22;13731;51.166;4.474;2023-04-15T02:24:59;10.20;99.90
25933;DHT22;13731;51.166;4.474;2023-04-15T02:27:25;10.30;99.90
25933;DHT22;13731;51.166;4.474;2023-04-15T02:29:53;10.50;61.80
25933;DHT22;13731;51.166;4.474;2023-04-15T02:32:19;10.40;41.80
25933;DHT22;13731;51.166;4.474;2023-04-15T02:34:46;10.60;1.00
25933;DHT22;13731;51.166;4.474;2023-04-15T02:37:13;10.70;99.90
25933;DHT22;13731;51.166;4.474;2023-04-15T02:39:39;10.70;1.00
25933;DHT22;13731;51.166;4.474;2023-04-15T02:42:05;10.30;99.90
25933;DHT22;13731;51.166;4.474;2023-04-15T02:44:31;10.10;99.90
25933;DHT22;13731;51.166;4.474;2023-04-15T02:47:00;10.30;99.90
25933;DHT22;13731;51.166;4.474;2023-04-15T02:49:26;10.10;1.00
25933;DHT22;13731;51.166;4.474;2023-04-15T02:51:55;10.10;99.90
25933;DHT22;13731;51.166;4.474;2023-04-15T02:54:23;10.00;99.90
25933;DHT22;13731;51.166;4.474;2023-04-15T02:56:52;9.70;1.00
25933;DHT22;13731;51.166;4.474;2023-04-15T02:59:20;10.00;1.00
25933;DHT22;13731;51.166;4.474;2023-04-15T03:01:45;10.20;99.90
25933;DHT22;13731;51.166;4.474;2023-04-15T03:04:11;9.90;99.90
25933;DHT22;13731;51.166;4.474;2023-04-15T03:06:38;9.50;99.90
25933;DHT22;13731;51.166;4.474;2023-04-15T03:09:07;9.30;99.90
25933;DHT22;13731;51.166;4.474;2023-04-15T03:11:38;9.50;99.90
25933;DHT22;13731;51.166;4.474;2023-04-15T03:14:07;9.40;99.90
25933;DHT22;13731;51.166;4.474;2023-04-15T03:16:36;9.10;58.90
25933;DHT22;13731;51.166;4.474;2023-04-15T03:19:02;9.20;99.90
25933;DHT22;13731;51.166;4.474;2023-04-15T03:21:28;9.40;99.90
25933;DHT22;13731;51.166;4.474;2023-04-15T03:23:54;9.60;99.90
25933;DHT22;13731;51.166;4.474;2023-04-15T03:26:25;9.40;1.00
25933;DHT22;13731;51.166;4.474;2023-04-15T03:28:52;9.20;99.90
25933;DHT22;13731;51.166;4.474;2023-04-15T03:31:18;9.10;99.90
25933;DHT22;13731;51.166;4.474;2023-04-15T03:33:44;9.00;1.00
25933;DHT22;13731;51.166;4.474;2023-04-15T03:36:10;9.20;56.60
25933;DHT22;13731;51.166;4.474;2023-04-15T03:38:35;8.80;1.00
25933;DHT22;13731;51.166;4.474;2023-04-15T03:41:01;8.60;99.90
25933;DHT22;13731;51.166;4.474;2023-04-15T03:43:27;8.50;99.90
25933;DHT22;13731;51.166;4.474;2023-04-15T03:45:53;8.80;99.90
25933;DHT22;13731;51.166;4.474;2023-04-15T03:48:19;8.80;99.90
25933;DHT22;13731;51.166;4.474;2023-04-15T03:50:45;9.00;99.90
25933;DHT22;13731;51.166;4.474;2023-04-15T03:53:11;8.90;1.00
25933;DHT22;13731;51.166;4.474;2023-04-15T03:55:37;8.50;99.90
25933;DHT22;13731;51.166;4.474;2023-04-15T03:58:03;8.30;99.90
25933;DHT22;13731;51.166;4.474;2023-04-15T04:00:29;8.30;1.00
25933;DHT22;13731;51.166;4.474;2023-04-15T04:02:58;8.70;99.90
25933;DHT22;13731;51.166;4.474;2023-04-15T04:05:24;8.70;99.90
25933;DHT22;13731;51.166;4.474;2023-04-15T04:07:50;8.70;99.90
25933;DHT22;13731;51.166;4.474;2023-04-15T04:10:18;8.70;1.00
25933;DHT22;13731;51.166;4.474;2023-04-15T04:12:44;8.50;99.90
25933;DHT22;13731;51.166;4.474;2023-04-15T04:15:10;8.30;1.00
25933;DHT22;13731;51.166;4.474;2023-04-15T04:17:37;8.40;47.50
25933;DHT22;13731;51.166;4.474;2023-04-15T04:20:06;8.60;1.00
25933;DHT22;13731;51.166;4.474;2023-04-15T04:22:37;8.80;99.90
25933;DHT22;13731;51.166;4.474;2023-04-15T04:25:04;9.00;9.40
25933;DHT22;13731;51.166;4.474;2023-04-15T04:27:30;8.80;1.00
25933;DHT22;13731;51.166;4.474;2023-04-15T04:29:56;8.60;10.40
25933;DHT22;13731;51.166;4.474;2023-04-15T04:32:22;8.50;99.90
25933;DHT22;13731;51.166;4.474;2023-04-15T04:34:48;8.30;99.90
25933;DHT22;13731;51.166;4.474;2023-04-15T04:37:14;8.20;22.60
25933;DHT22;13731;51.166;4.474;2023-04-15T04:39:43;8.20;1.00
25933;DHT22;13731;51.166;4.474;2023-04-15T04:42:09;8.10;13.00
25933;DHT22;13731;51.166;4.474;2023-04-15T04:44:35;8.30;99.90
25933;DHT22;13731;51.166;4.474;2023-04-15T04:47:02;8.50;44.20
25933;DHT22;13731;51.166;4.474;2023-04-15T04:49:27;8.80;99.90
25933;DHT22;13731;51.166;4.474;2023-04-15T04:51:56;9.10;99.90
25933;DHT22;13731;51.166;4.474;2023-04-15T04:54:22;9.00;1.00
25933;DHT22;13731;51.166;4.474;2023-04-15T04:56:51;8.80;76.50
25933;DHT22;13731;51.166;4.474;2023-04-15T04:59:20;8.50;99.90
25933;DHT22;13731;51.166;4.474;2023-04-15T05:01:46;8.30;1.00
25933;DHT22;13731;51.166;4.474;2023-04-15T05:04:11;8.30;1.00
25933;DHT22;13731;51.166;4.474;2023-04-15T05:06:37;8.60;1.00
25933;DHT22;13731;51.166;4.474;2023-04-15T05:09:03;8.70;1.00
25933;DHT22;13731;51.166;4.474;2023-04-15T05:11:29;8.80;1.00
25933;DHT22;13731;51.166;4.474;2023-04-15T05:13:55;8.80;99.90
25933;DHT22;13731;51.166;4.474;2023-04-15T05:16:22;8.80;1.00
25933;DHT22;13731;51.166;4.474;2023-04-15T05:18:50;8.90;99.90
25933;DHT22;13731;51.166;4.474;2023-04-15T05:21:16;9.00;1.00
25933;DHT22;13731;51.166;4.474;2023-04-15T05:23:42;9.10;99.90
25933;DHT22;13731;51.166;4.474;2023-04-15T05:26:08;9.20;99.90
25933;DHT22;13731;51.166;4.474;2023-04-15T05:28:34;9.50;1.00
25933;DHT22;13731;51.166;4.474;2023-04-15T05:31:00;9.40;1.00
25933;DHT22;13731;51.166;4.474;2023-04-15T05:33:26;9.40;1.00
25933;DHT22;13731;51.166;4.474;2023-04-15T05:35:53;9.70;99.90
25933;DHT22;13731;51.166;4.474;2023-04-15T05:38:19;9.80;99.90
25933;DHT22;13731;51.166;4.474;2023-04-15T05:40:45;10.00;1.00
25933;DHT22;13731;51.166;4.474;2023-04-15T05:43:11;9.60;1.00
25933;DHT22;13731;51.166;4.474;2023-04-15T05:45:36;9.40;1.00
25933;DHT22;13731;51.166;4.474;2023-04-15T05:48:02;9.30;99.90
25933;DHT22;13731;51.166;4.474;2023-04-15T05:50:28;9.40;99.90
25933;DHT22;13731;51.166;4.474;2023-04-15T05:52:54;9.50;1.00
25933;DHT22;13731;51.166;4.474;2023-04-15T05:55:20;9.50;99.90
25933;DHT22;13731;51.166;4.474;2023-04-15T05:57:46;9.50;1.00
25933;DHT22;13731;51.166;4.474;2023-04-15T06:00:13;9.70;99.90
25933;DHT22;13731;51.166;4.474;2023-04-15T06:02:42;9.80;99.90
25933;DHT22;13731;51.166;4.474;2023-04-15T06:05:08;9.90;34.50
25933;DHT22;13731;51.166;4.474;2023-04-15T06:07:38;9.90;27.40
25933;DHT22;13731;51.166;4.474;2023-04-15T06:10:04;9.90;99.90
25933;DHT22;13731;51.166;4.474;2023-04-15T06:12:30;9.90;99.90
25933;DHT22;13731;51.166;4.474;2023-04-15T06:14:56;10.10;1.00
25933;DHT22;13731;51.166;4.474;2023-04-15T06:17:22;10.10;99.90
25933;DHT22;13731;51.166;4.474;2023-04-15T06:19:48;10.00;99.90
25933;DHT22;13731;51.166;4.474;2023-04-15T06:22:16;10.10;1.00
25933;DHT22;13731;51.166;4.474;2023-04-15T06:24:42;10.00;99.90
25933;DHT22;13731;51.166;4.474;2023-04-15T06:27:08;10.10;99.90
25933;DHT22;13731;51.166;4.474;2023-04-15T06:29:33;10.20;99.90
25933;DHT22;13731;51.166;4.474;2023-04-15T06:31:59;10.00;99.90
25933;DHT22;13731;51.166;4.474;2023-04-15T06:34:25;10.00;1.00
25933;DHT22;13731;51.166;4.474;2023-04-15T06:36:52;10.00;91.30
25933;DHT22;13731;51.166;4.474;2023-04-15T06:39:22;10.00;99.90
25933;DHT22;13731;51.166;4.474;2023-04-15T06:41:48;9.90;1.00
25933;DHT22;13731;51.166;4.474;2023-04-15T06:44:14;10.00;1.00
25933;DHT22;13731;51.166;4.474;2023-04-15T06:46:40;10.30;1.00
25933;DHT22;13731;51.166;4.474;2023-04-15T06:49:06;10.30;99.90
25933;DHT22;13731;51.166;4.474;2023-04-15T06:51:34;10.50;1.00
25933;DHT22;13731;51.166;4.474;2023-04-15T06:54:00;10.80;99.90
25933;DHT22;13731;51.166;4.474;2023-04-15T06:56:27;11.20;1.00
25933;DHT22;13731;51.166;4.474;2023-04-15T06:58:53;10.70;1.00
25933;DHT22;13731;51.166;4.474;2023-04-15T07:01:19;10.50;99.90
25933;DHT22;13731;51.166;4.474;2023-04-15T07:03:45;10.30;99.90
25933;DHT22;13731;51.166;4.474;2023-04-15T07:06:11;10.10;99.90
25933;DHT22;13731;51.166;4.474;2023-04-15T07:08:37;10.10;1.00
25933;DHT22;13731;51.166;4.474;2023-04-15T07:11:03;10.10;99.90
25933;DHT22;13731;51.166;4.474;2023-04-15T07:13:30;10.00;1.00
25933;DHT22;13731;51.166;4.474;2023-04-15T07:15:56;10.40;99.90
25933;DHT22;13731;51.166;4.474;2023-04-15T07:18:22;10.40;32.50
25933;DHT22;13731;51.166;4.474;2023-04-15T07:20:48;10.50;99.90
25933;DHT22;13731;51.166;4.474;2023-04-15T07:23:14;10.70;99.90
25933;DHT22;13731;51.166;4.474;2023-04-15T07:25:41;10.80;1.00
25933;DHT22;13731;51.166;4.474;2023-04-15T07:28:07;11.10;1.00
25933;DHT22;13731;51.166;4.474;2023-04-15T07:30:33;11.40;1.00
25933;DHT22;13731;51.166;4.474;2023-04-15T07:32:59;11.30;99.90
25933;DHT22;13731;51.166;4.474;2023-04-15T07:35:25;11.30;1.00
25933;DHT22;13731;51.166;4.474;2023-04-15T07:37:52;11.50;99.90
25933;DHT22;13731;51.166;4.474;2023-04-15T07:40:18;11.50;99.90
25933;DHT22;13731;51.166;4.474;2023-04-15T07:42:44;11.60;99.90
25933;DHT22;13731;51.166;4.474;2023-04-15T07:45:10;11.70;99.90
25933;DHT22;13731;51.166;4.474;2023-04-15T07:47:37;11.70;99.90
25933;DHT22;13731;51.166;4.474;2023-04-15T07:50:03;11.90;99.90
25933;DHT22;13731;51.166;4.474;2023-04-15T07:52:29;11.90;50.00
25933;DHT22;13731;51.166;4.474;2023-04-15T07:54:55;12.30;1.00
25933;DHT22;13731;51.166;4.474;2023-04-15T07:57:21;12.30;1.00
25933;DHT22;13731;51.166;4.474;2023-04-15T07:59:47;12.30;1.00
25933;DHT22;13731;51.166;4.474;2023-04-15T08:02:13;12.20;1.00
25933;DHT22;13731;51.166;4.474;2023-04-15T08:04:38;12.30;1.00
25933;DHT22;13731;51.166;4.474;2023-04-15T08:07:04;12.30;1.00
25933;DHT22;13731;51.166;4.474;2023-04-15T08:09:30;12.60;1.00
25933;DHT22;13731;51.166;4.474;2023-04-15T08:11:56;12.70;99.90
25933;DHT22;13731;51.166;4.474;2023-04-15T08:14:23;12.70;99.90
25933;DHT22;13731;51.166;4.474;2023-04-15T08:16:49;12.70;99.90
25933;DHT22;13731;51.166;4.474;2023-04-15T08:19:15;12.80;99.90
25933;DHT22;13731;51.166;4.474;2023-04-15T08:21:41;13.10;99.90
25933;DHT22;13731;51.166;4.474;2023-04-15T08:24:07;13.10;99.90
25933;DHT22;13731;51.166;4.474;2023-04-15T08:26:33;13.10;99.90
25933;DHT22;13731;51.166;4.474;2023-04-15T08:28:59;13.30;99.90
25933;DHT22;13731;51.166;4.474;2023-04-15T08:31:25;13.50;99.90
25933;DHT22;13731;51.166;4.474;2023-04-15T08:33:51;13.60;99.90
25933;DHT22;13731;51.166;4.474;2023-04-15T08:36:19;13.50;99.90
25933;DHT22;13731;51.166;4.474;2023-04-15T08:38:45;13.60;99.90
25933;DHT22;13731;51.166;4.474;2023-04-15T08:41:23;13.70;99.90
25933;DHT22;13731;51.166;4.474;2023-04-15T08:43:56;13.70;99.90
25933;DHT22;13731;51.166;4.474;2023-04-15T08:46:22;13.70;99.90
25933;DHT22;13731;51.166;4.474;2023-04-15T08:48:49;13.70;99.90
25933;DHT22;13731;51.166;4.474;2023-04-15T08:51:16;13.70;99.90
25933;DHT22;13731;51.166;4.474;2023-04-15T08:53:43;13.80;99.90
25933;DHT22;13731;51.166;4.474;2023-04-15T08:56:12;13.90;99.90
25933;DHT22;13731;51.166;4.474;2023-04-15T08:58:39;14.00;99.90
25933;DHT22;13731;51.166;4.474;2023-04-15T09:01:04;14.10;99.90
25933;DHT22;13731;51.166;4.474;2023-04-15T09:03:31;14.20;99.90
25933;DHT22;13731;51.166;4.474;2023-04-15T09:05:58;14.20;99.90
25933;DHT22;13731;51.166;4.474;2023-04-15T09:08:24;14.20;99.90
25933;DHT22;13731;51.166;4.474;2023-04-15T09:10:50;14.30;99.90
25933;DHT22;13731;51.166;4.474;2023-04-15T09:13:17;14.10;99.90
25933;DHT22;13731;51.166;4.474;2023-04-15T09:15:43;14.00;99.90
25933;DHT22;13731;51.166;4.474;2023-04-15T09:18:11;14.20;99.90
25933;DHT22;13731;51.166;4.474;2023-04-15T09:20:41;14.10;99.90
25933;DHT22;13731;51.166;4.474;2023-04-15T09:23:11;14.10;99.90
25933;DHT22;13731;51.166;4.474;2023-04-15T09:25:39;14.10;99.90
25933;DHT22;13731;51.166;4.474;2023-04-15T09:28:07;14.20;99.90
25933;DHT22;13731;51.166;4.474;2023-04-15T09:30:34;14.30;99.90
25933;DHT22;13731;51.166;4.474;2023-04-15T09:33:01;14.40;99.90
25933;DHT22;13731;51.166;4.474;2023-04-15T09:35:29;14.50;99.90
25933;DHT22;13731;51.166;4.474;2023-04-15T09:38:08;14.60;99.90
25933;DHT22;13731;51.166;4.474;2023-04-15T09:40:40;14.60;99.90
25933;DHT22;13731;51.166;4.474;2023-04-15T09:43:08;14.50;99.90
25933;DHT22;13731;51.166;4.474;2023-04-15T09:45:37;14.60;97.00
25933;DHT22;13731;51.166;4.474;2023-04-15T09:48:23;14.70;29.00
25933;DHT22;13731;51.166;4.474;2023-04-15T09:50:52;14.70;14.50
25933;DHT22;13731;51.166;4.474;2023-04-15T09:53:23;14.80;1.90
25933;DHT22;13731;51.166;4.474;2023-04-15T09:55:55;14.70;1.00
25933;DHT22;13731;51.166;4.474;2023-04-15T09:58:32;14.70;10.60
25933;DHT22;13731;51.166;4.474;2023-04-15T10:00:59;14.80;32.80
25933;DHT22;13731;51.166;4.474;2023-04-15T10:03:28;15.20;26.80
25933;DHT22;13731;51.166;4.474;2023-04-15T10:05:57;15.50;16.20
25933;DHT22;13731;51.166;4.474;2023-04-15T10:08:28;15.70;1.00
25933;DHT22;13731;51.166;4.474;2023-04-15T10:10:54;16.70;1.00
25933;DHT22;13731;51.166;4.474;2023-04-15T10:13:23;18.20;1.00
25933;DHT22;13731;51.166;4.474;2023-04-15T10:16:07;19.50;1.00
25933;DHT22;13731;51.166;4.474;2023-04-15T10:18:37;19.50;1.00
25933;DHT22;13731;51.166;4.474;2023-04-15T10:21:06;19.50;1.00
25933;DHT22;13731;51.166;4.474;2023-04-15T10:23:33;19.70;1.00
25933;DHT22;13731;51.166;4.474;2023-04-15T10:25:59;20.40;1.00
25933;DHT22;13731;51.166;4.474;2023-04-15T10:28:26;20.90;1.00
25933;DHT22;13731;51.166;4.474;2023-04-15T10:30:52;21.70;1.00
25933;DHT22;13731;51.166;4.474;2023-04-15T10:33:21;22.20;1.00
25933;DHT22;13731;51.166;4.474;2023-04-15T10:35:49;21.80;1.00
25933;DHT22;13731;51.166;4.474;2023-04-15T10:49:08;23.00;1.00
25933;DHT22;13731;51.166;4.474;2023-04-15T10:51:41;23.00;1.00
25933;DHT22;13731;51.166;4.474;2023-04-15T10:54:30;23.10;1.00
25933;DHT22;13731;51.166;4.474;2023-04-15T11:00:18;22.90;1.00
25933;DHT22;13731;51.166;4.474;2023-04-15T11:02:44;22.40;1.00
25933;DHT22;13731;51.166;4.474;2023-04-15T11:05:16;21.60;1.00
25933;DHT22;13731;51.166;4.474;2023-04-15T11:12:44;21.70;1.00
25933;DHT22;13731;51.166;4.474;2023-04-15T11:15:30;21.90;1.00
25933;DHT22;13731;51.166;4.474;2023-04-15T11:17:58;21.20;1.00
25933;DHT22;13731;51.166;4.474;2023-04-15T11:20:27;21.50;1.00
25933;DHT22;13731;51.166;4.474;2023-04-15T11:22:54;21.80;1.00
25933;DHT22;13731;51.166;4.474;2023-04-15T11:25:23;22.10;1.00
25933;DHT22;13731;51.166;4.474;2023-04-15T11:27:49;22.50;1.00
25933;DHT22;13731;51.166;4.474;2023-04-15T11:30:20;22.90;1.00
25933;DHT22;13731;51.166;4.474;2023-04-15T11:32:48;23.30;1.00
25933;DHT22;13731;51.166;4.474;2023-04-15T11:35:16;23.10;1.00
25933;DHT22;13731;51.166;4.474;2023-04-15T11:37:44;22.90;1.00
25933;DHT22;13731;51.166;4.474;2023-04-15T11:40:13;23.70;1.00
25933;DHT22;13731;51.166;4.474;2023-04-15T11:42:40;23.20;1.00
25933;DHT22;13731;51.166;4.474;2023-04-15T11:45:15;23.00;1.00
25933;DHT22;13731;51.166;4.474;2023-04-15T11:47:42;24.60;1.00
25933;DHT22;13731;51.166;4.474;2023-04-15T11:50:20;24.60;1.00
25933;DHT22;13731;51.166;4.474;2023-04-15T11:52:57;24.90;1.00
25933;DHT22;13731;51.166;4.474;2023-04-15T11:55:26;25.20;1.00
25933;DHT22;13731;51.166;4.474;2023-04-15T11:58:14;25.00;1.00
25933;DHT22;13731;51.166;4.474;2023-04-15T12:00:44;25.50;1.00
25933;DHT22;13731;51.166;4.474;2023-04-15T12:03:27;25.80;1.00
25933;DHT22;13731;51.166;4.474;2023-04-15T12:06:03;24.90;1.00
25933;DHT22;13731;51.166;4.474;2023-04-15T12:08:59;26.10;1.00
25933;DHT22;13731;51.166;4.474;2023-04-15T12:16:48;25.20;1.00
25933;DHT22;13731;51.166;4.474;2023-04-15T12:19:16;25.30;1.00
25933;DHT22;13731;51.166;4.474;2023-04-15T12:21:45;25.10;1.00
25933;DHT22;13731;51.166;4.474;2023-04-15T12:24:12;25.70;1.00
25933;DHT22;13731;51.166;4.474;2023-04-15T12:26:53;24.90;1.00
25933;DHT22;13731;51.166;4.474;2023-04-15T12:29:24;24.70;1.00
25933;DHT22;13731;51.166;4.474;2023-04-15T12:34:34;25.70;1.00
25933;DHT22;13731;51.166;4.474;2023-04-15T12:37:02;26.10;1.00
25933;DHT22;13731;51.166;4.474;2023-04-15T12:39:30;26.90;1.00
25933;DHT22;13731;51.166;4.474;2023-04-15T12:41:57;25.00;1.00
25933;DHT22;13731;51.166;4.474;2023-04-15T12:44:23;25.30;1.00
25933;DHT22;13731;51.166;4.474;2023-04-15T12:46:50;24.20;1.00
25933;DHT22;13731;51.166;4.474;2023-04-15T12:49:18;24.40;1.00
25933;DHT22;13731;51.166;4.474;2023-04-15T12:51:51;24.90;1.00
25933;DHT22;13731;51.166;4.474;2023-04-15T12:54:18;24.80;1.00
25933;DHT22;13731;51.166;4.474;2023-04-15T12:56:45;25.20;1.00
25933;DHT22;13731;51.166;4.474;2023-04-15T12:59:12;24.80;1.00
25933;DHT22;13731;51.166;4.474;2023-04-15T13:01:38;24.90;1.00
25933;DHT22;13731;51.166;4.474;2023-04-15T13:04:04;24.80;1.00
25933;DHT22;13731;51.166;4.474;2023-04-15T13:06:31;25.50;1.00
25933;DHT22;13731;51.166;4.474;2023-04-15T13:08:58;26.10;1.00
25933;DHT22;13731;51.166;4.474;2023-04-15T13:11:27;26.90;1.00
25933;DHT22;13731;51.166;4.474;2023-04-15T13:13:55;26.70;1.00
25933;DHT22;13731;51.166;4.474;2023-04-15T13:16:22;26.80;1.00
25933;DHT22;13731;51.166;4.474;2023-04-15T13:18:48;25.40;1.00
25933;DHT22;13731;51.166;4.474;2023-04-15T13:21:14;25.20;1.00
25933;DHT22;13731;51.166;4.474;2023-04-15T13:23:43;25.00;1.00
25933;DHT22;13731;51.166;4.474;2023-04-15T13:26:09;24.10;1.00
25933;DHT22;13731;51.166;4.474;2023-04-15T13:28:34;23.50;1.00
25933;DHT22;13731;51.166;4.474;2023-04-15T13:31:00;23.80;1.00
25933;DHT22;13731;51.166;4.474;2023-04-15T13:33:26;24.20;1.00
25933;DHT22;13731;51.166;4.474;2023-04-15T13:35:52;24.50;1.00
25933;DHT22;13731;51.166;4.474;2023-04-15T13:38:18;24.80;1.00
25933;DHT22;13731;51.166;4.474;2023-04-15T13:40:44;25.40;1.00
25933;DHT22;13731;51.166;4.474;2023-04-15T13:43:10;25.00;1.00
25933;DHT22;13731;51.166;4.474;2023-04-15T13:45:36;25.30;1.00
25933;DHT22;13731;51.166;4.474;2023-04-15T13:48:03;25.20;1.00
25933;DHT22;13731;51.166;4.474;2023-04-15T13:50:29;25.60;1.00
25933;DHT22;13731;51.166;4.474;2023-04-15T13:52:55;25.70;1.00
25933;DHT22;13731;51.166;4.474;2023-04-15T13:55:21;25.80;1.00
25933;DHT22;13731;51.166;4.474;2023-04-15T13:57:46;26.40;1.00
25933;DHT22;13731;51.166;4.474;2023-04-15T14:00:13;26.00;1.00
25933;DHT22;13731;51.166;4.474;2023-04-15T14:02:39;25.80;1.00
25933;DHT22;13731;51.166;4.474;2023-04-15T14:05:06;26.00;1.00
25933;DHT22;13731;51.166;4.474;2023-04-15T14:07:31;26.60;1.00
25933;DHT22;13731;51.166;4.474;2023-04-15T14:10:00;26.70;1.00
25933;DHT22;13731;51.166;4.474;2023-04-15T14:12:26;24.20;1.00
25933;DHT22;13731;51.166;4.474;2023-04-15T14:14:52;22.50;1.00
25933;DHT22;13731;51.166;4.474;2023-04-15T14:17:18;23.50;1.00
25933;DHT22;13731;51.166;4.474;2023-04-15T14:19:44;22.80;1.00
25933;DHT22;13731;51.166;4.474;2023-04-15T14:22:10;22.40;1.00
25933;DHT22;13731;51.166;4.474;2023-04-15T14:24:36;21.00;1.00
25933;DHT22;13731;51.166;4.474;2023-04-15T14:27:02;20.30;1.00
25933;DHT22;13731;51.166;4.474;2023-04-15T14:29:28;19.20;1.00
25933;DHT22;13731;51.166;4.474;2023-04-15T14:31:54;18.50;1.00
25933;DHT22;13731;51.166;4.474;2023-04-15T14:34:22;20.50;1.00
25933;DHT22;13731;51.166;4.474;2023-04-15T14:36:50;21.70;1.00
25933;DHT22;13731;51.166;4.474;2023-04-15T14:39:18;22.80;1.00
25933;DHT22;13731;51.166;4.474;2023-04-15T14:41:44;23.10;1.00
25933;DHT22;13731;51.166;4.474;2023-04-15T14:44:11;23.50;1.00
25933;DHT22;13731;51.166;4.474;2023-04-15T14:46:37;24.50;1.00
25933;DHT22;13731;51.166;4.474;2023-04-15T14:49:03;25.10;1.00
25933;DHT22;13731;51.166;4.474;2023-04-15T14:51:30;24.60;1.00
25933;DHT22;13731;51.166;4.474;2023-04-15T14:53:56;24.00;1.00
25933;DHT22;13731;51.166;4.474;2023-04-15T14:56:22;23.60;1.00
25933;DHT22;13731;51.166;4.474;2023-04-15T14:58:48;23.70;1.00
25933;DHT22;13731;51.166;4.474;2023-04-15T15:01:15;24.10;1.00
25933;DHT22;13731;51.166;4.474;2023-04-15T15:03:40;24.80;1.00
25933;DHT22;13731;51.166;4.474;2023-04-15T15:06:06;25.50;1.00
25933;DHT22;13731;51.166;4.474;2023-04-15T15:08:33;24.50;1.00
25933;DHT22;13731;51.166;4.474;2023-04-15T15:10:59;24.70;1.00
25933;DHT22;13731;51.166;4.474;2023-04-15T15:13:25;24.80;1.00
25933;DHT22;13731;51.166;4.474;2023-04-15T15:15:51;24.60;1.00
25933;DHT22;13731;51.166;4.474;2023-04-15T15:18:17;24.40;1.00
25933;DHT22;13731;51.166;4.474;2023-04-15T15:20:43;24.10;1.00
25933;DHT22;13731;51.166;4.474;2023-04-15T15:23:09;24.60;1.00
25933;DHT22;13731;51.166;4.474;2023-04-15T15:25:35;24.90;1.00
25933;DHT22;13731;51.166;4.474;2023-04-15T15:28:01;24.70;1.00
25933;DHT22;13731;51.166;4.474;2023-04-15T15:30:27;24.20;1.00
25933;DHT22;13731;51.166;4.474;2023-04-15T15:32:53;22.90;1.00
25933;DHT22;13731;51.166;4.474;2023-04-15T15:35:18;22.50;1.00
25933;DHT22;13731;51.166;4.474;2023-04-15T15:37:45;23.70;1.00
25933;DHT22;13731;51.166;4.474;2023-04-15T15:40:11;23.90;1.00
25933;DHT22;13731;51.166;4.474;2023-04-15T15:42:37;24.50;1.00
25933;DHT22;13731;51.166;4.474;2023-04-15T15:45:03;24.40;1.00
25933;DHT22;13731;51.166;4.474;2023-04-15T15:47:29;25.10;1.00
25933;DHT22;13731;51.166;4.474;2023-04-15T15:49:55;25.70;1.00
25933;DHT22;13731;51.166;4.474;2023-04-15T15:52:21;25.60;1.00
25933;DHT22;13731;51.166;4.474;2023-04-15T15:54:47;25.10;1.00
25933;DHT22;13731;51.166;4.474;2023-04-15T15:57:13;24.10;1.00
25933;DHT22;13731;51.166;4.474;2023-04-15T15:59:39;22.10;1.00
25933;DHT22;13731;51.166;4.474;2023-04-15T16:02:12;20.90;1.00
25933;DHT22;13731;51.166;4.474;2023-04-15T16:04:39;19.70;1.00
25933;DHT22;13731;51.166;4.474;2023-04-15T16:07:05;19.30;1.00
25933;DHT22;13731;51.166;4.474;2023-04-15T16:09:31;18.40;1.00